createdAt,value
2019-03-01T00:00:22.178Z,1007.46
2019-03-01T00:01:22.167Z,1007.35
2019-03-01T00:02:22.196Z,1007.39
2019-03-01T00:03:22.176Z,1007.39
2019-03-01T00:04:22.154Z,1007.39
2019-03-01T00:05:22.153Z,1007.39
2019-03-01T00:06:22.142Z,1007.40
2019-03-01T00:07:22.129Z,1007.37
2019-03-01T00:08:22.123Z,1007.37
2019-03-01T00:09:22.627Z,1007.39
2019-03-01T00:10:22.110Z,1007.38
2019-03-01T00:11:22.115Z,1007.34
2019-03-01T00:12:22.113Z,1007.36
2019-03-01T00:13:22.083Z,1007.37
2019-03-01T00:14:22.080Z,1007.37
2019-03-01T00:15:22.634Z,1007.36
2019-03-01T00:16:22.072Z,1007.35
2019-03-01T00:17:22.062Z,1007.33
2019-03-01T00:18:22.057Z,1007.35
2019-03-01T00:19:22.057Z,1007.37
2019-03-01T00:20:22.044Z,1007.31
2019-03-01T00:21:22.045Z,1007.33
2019-03-01T00:22:22.027Z,1007.33
2019-03-01T00:23:22.023Z,1007.30
2019-03-01T00:24:22.020Z,1007.27
2019-03-01T00:25:22.006Z,1007.30
2019-03-01T00:26:22.001Z,1007.28
2019-03-01T00:27:21.983Z,1007.30
2019-03-01T00:28:21.978Z,1007.32
2019-03-01T00:29:21.972Z,1007.24
2019-03-01T00:30:21.966Z,1007.28
2019-03-01T00:31:21.969Z,1007.25
2019-03-01T00:32:21.952Z,1007.22
2019-03-01T00:33:21.957Z,1007.22
2019-03-01T00:34:21.939Z,1007.21
2019-03-01T00:35:22.638Z,1007.21
2019-03-01T00:36:21.923Z,1007.20
2019-03-01T00:37:21.924Z,1007.16
2019-03-01T00:38:21.958Z,1007.15
2019-03-01T00:39:21.906Z,1007.18
2019-03-01T00:40:21.903Z,1007.12
2019-03-01T00:41:21.899Z,1007.16
2019-03-01T00:42:21.892Z,1007.11
2019-03-01T00:43:21.880Z,1007.07
2019-03-01T00:44:21.869Z,1007.08
2019-03-01T00:45:21.863Z,1007.07
2019-03-01T00:46:21.859Z,1007.05
2019-03-01T00:47:21.860Z,1007.03
2019-03-01T00:48:21.878Z,1007.01
2019-03-01T00:49:22.649Z,1007.06
2019-03-01T00:50:21.881Z,1007.00
2019-03-01T00:51:21.814Z,1007.00
2019-03-01T00:52:21.812Z,1007.00
2019-03-01T00:53:21.806Z,1007.03
2019-03-01T00:54:22.649Z,1007.01
2019-03-01T00:55:21.792Z,1007.00
2019-03-01T00:56:21.792Z,1006.98
2019-03-01T00:57:21.778Z,1006.97
2019-03-01T00:58:21.770Z,1006.96
2019-03-01T00:59:21.763Z,1006.93
2019-03-01T01:00:21.756Z,1006.96
2019-03-01T01:01:21.750Z,1006.89
2019-03-01T01:02:21.742Z,1006.88
2019-03-01T01:03:21.758Z,1006.87
2019-03-01T01:04:21.781Z,1006.87
2019-03-01T01:05:21.739Z,1006.88
2019-03-01T01:06:21.712Z,1006.84
2019-03-01T01:07:21.704Z,1006.84
2019-03-01T01:08:21.699Z,1006.82
2019-03-01T01:09:21.690Z,1006.80
2019-03-01T01:10:21.693Z,1006.77
2019-03-01T01:11:21.685Z,1006.77
2019-03-01T01:12:21.672Z,1006.78
2019-03-01T01:13:21.659Z,1006.79
2019-03-01T01:14:22.653Z,1006.77
2019-03-01T01:15:22.157Z,1006.76
2019-03-01T01:16:21.646Z,1006.72
2019-03-01T01:17:21.632Z,1006.73
2019-03-01T01:18:21.643Z,1006.72
2019-03-01T01:19:21.681Z,1006.71
2019-03-01T01:20:21.804Z,1006.69
2019-03-01T01:21:21.666Z,1006.67
2019-03-01T01:22:21.599Z,1006.65
2019-03-01T01:23:21.592Z,1006.64
2019-03-01T01:24:22.194Z,1006.68
2019-03-01T01:25:21.579Z,1006.67
2019-03-01T01:26:24.156Z,1006.66
2019-03-01T01:27:22.169Z,1006.63
2019-03-01T01:28:22.161Z,1006.62
2019-03-01T01:29:21.541Z,1006.61
2019-03-01T01:30:21.541Z,1006.64
2019-03-01T01:31:21.531Z,1006.60
2019-03-01T01:32:21.551Z,1006.61
2019-03-01T01:33:21.522Z,1006.60
2019-03-01T01:34:22.169Z,1006.62
2019-03-01T01:35:21.503Z,1006.56
2019-03-01T01:36:21.495Z,1006.61
2019-03-01T01:37:21.533Z,1006.59
2019-03-01T01:38:21.495Z,1006.58
2019-03-01T01:39:23.131Z,1006.53
2019-03-01T01:40:21.475Z,1006.54
2019-03-01T01:41:21.473Z,1006.56
2019-03-01T01:42:22.166Z,1006.54
2019-03-01T01:43:21.455Z,1006.54
2019-03-01T01:44:21.459Z,1006.50
2019-03-01T01:45:21.435Z,1006.51
2019-03-01T01:46:21.457Z,1006.51
2019-03-01T01:47:21.422Z,1006.44
2019-03-01T01:48:21.427Z,1006.49
2019-03-01T01:49:21.409Z,1006.47
2019-03-01T01:50:21.412Z,1006.49
2019-03-01T01:51:21.390Z,1006.45
2019-03-01T01:52:22.232Z,1006.45
2019-03-01T01:53:21.384Z,1006.44
2019-03-01T01:54:21.396Z,1006.41
2019-03-01T01:55:22.174Z,1006.40
2019-03-01T01:56:21.365Z,1006.33
2019-03-01T01:57:21.364Z,1006.34
2019-03-01T01:58:21.359Z,1006.34
2019-03-01T01:59:21.351Z,1006.31
2019-03-01T02:00:21.352Z,1006.28
2019-03-01T02:01:21.335Z,1006.30
2019-03-01T02:02:21.336Z,1006.25
2019-03-01T02:03:21.307Z,1006.26
2019-03-01T02:04:21.313Z,1006.24
2019-03-01T02:05:21.321Z,1006.28
2019-03-01T02:06:21.292Z,1006.24
2019-03-01T02:07:21.279Z,1006.24
2019-03-01T02:08:21.287Z,1006.23
2019-03-01T02:09:21.268Z,1006.23
2019-03-01T02:10:21.263Z,1006.21
2019-03-01T02:11:21.253Z,1006.22
2019-03-01T02:12:21.250Z,1006.22
2019-03-01T02:13:21.240Z,1006.19
2019-03-01T02:14:21.227Z,1006.15
2019-03-01T02:15:21.233Z,1006.19
2019-03-01T02:16:21.228Z,1006.15
2019-03-01T02:17:21.213Z,1006.18
2019-03-01T02:18:21.202Z,1006.14
2019-03-01T02:19:21.195Z,1006.15
2019-03-01T02:20:22.188Z,1006.15
2019-03-01T02:21:21.175Z,1006.14
2019-03-01T02:22:21.188Z,1006.13
2019-03-01T02:23:21.167Z,1006.14
2019-03-01T02:24:21.170Z,1006.08
2019-03-01T02:25:21.168Z,1006.09
2019-03-01T02:26:21.696Z,1006.05
2019-03-01T02:27:21.684Z,1006.05
2019-03-01T02:28:21.151Z,1006.07
2019-03-01T02:29:21.124Z,1006.04
2019-03-01T02:30:21.120Z,1006.03
2019-03-01T02:31:21.133Z,1006.02
2019-03-01T02:32:21.108Z,1006.01
2019-03-01T02:33:21.106Z,1005.98
2019-03-01T02:34:21.689Z,1005.96
2019-03-01T02:35:21.087Z,1005.98
2019-03-01T02:36:21.074Z,1005.95
2019-03-01T02:37:21.071Z,1005.94
2019-03-01T02:38:21.062Z,1005.92
2019-03-01T02:39:21.059Z,1005.95
2019-03-01T02:40:21.059Z,1005.93
2019-03-01T02:41:21.047Z,1005.92
2019-03-01T02:42:21.051Z,1005.89
2019-03-01T02:43:21.037Z,1005.89
2019-03-01T02:44:21.033Z,1005.90
2019-03-01T02:45:21.019Z,1005.91
2019-03-01T02:46:21.026Z,1005.90
2019-03-01T02:47:21.700Z,1005.89
2019-03-01T02:48:21.003Z,1005.89
2019-03-01T02:49:20.992Z,1005.87
2019-03-01T02:50:20.976Z,1005.84
2019-03-01T02:51:20.969Z,1005.84
2019-03-01T02:52:20.961Z,1005.81
2019-03-01T02:53:20.958Z,1005.80
2019-03-01T02:54:20.954Z,1005.78
2019-03-01T02:55:20.948Z,1005.78
2019-03-01T02:56:20.937Z,1005.80
2019-03-01T02:57:20.933Z,1005.74
2019-03-01T02:58:20.930Z,1005.74
2019-03-01T02:59:20.919Z,1005.74
2019-03-01T03:00:20.910Z,1005.72
2019-03-01T03:01:23.703Z,1005.70
2019-03-01T03:02:20.893Z,1005.71
2019-03-01T03:03:20.889Z,1005.70
2019-03-01T03:04:20.876Z,1005.72
2019-03-01T03:05:20.872Z,1005.67
2019-03-01T03:06:20.882Z,1005.67
2019-03-01T03:07:20.863Z,1005.65
2019-03-01T03:08:20.861Z,1005.64
2019-03-01T03:09:20.854Z,1005.66
2019-03-01T03:10:21.719Z,1005.62
2019-03-01T03:11:20.842Z,1005.61
2019-03-01T03:12:20.842Z,1005.58
2019-03-01T03:13:20.849Z,1005.61
2019-03-01T03:14:20.818Z,1005.59
2019-03-01T03:15:20.811Z,1005.59
2019-03-01T03:16:20.833Z,1005.57
2019-03-01T03:17:21.715Z,1005.54
2019-03-01T03:18:20.788Z,1005.57
2019-03-01T03:19:20.771Z,1005.58
2019-03-01T03:20:20.773Z,1005.56
2019-03-01T03:21:20.756Z,1005.58
2019-03-01T03:22:20.757Z,1005.56
2019-03-01T03:23:20.745Z,1005.54
2019-03-01T03:24:20.775Z,1005.55
2019-03-01T03:25:21.717Z,1005.54
2019-03-01T03:26:21.711Z,1005.49
2019-03-01T03:27:20.716Z,1005.53
2019-03-01T03:28:20.717Z,1005.51
2019-03-01T03:29:20.707Z,1005.51
2019-03-01T03:30:20.694Z,1005.48
2019-03-01T03:31:20.688Z,1005.44
2019-03-01T03:32:20.698Z,1005.45
2019-03-01T03:33:20.692Z,1005.48
2019-03-01T03:34:20.692Z,1005.47
2019-03-01T03:35:20.673Z,1005.47
2019-03-01T03:36:20.662Z,1005.46
2019-03-01T03:37:20.645Z,1005.45
2019-03-01T03:38:20.656Z,1005.43
2019-03-01T03:39:20.648Z,1005.45
2019-03-01T03:40:20.624Z,1005.44
2019-03-01T03:41:20.622Z,1005.46
2019-03-01T03:42:20.618Z,1005.44
2019-03-01T03:43:22.701Z,1005.41
2019-03-01T03:44:20.606Z,1005.42
2019-03-01T03:45:20.601Z,1005.43
2019-03-01T03:46:21.215Z,1005.40
2019-03-01T03:47:20.571Z,1005.39
2019-03-01T03:48:20.568Z,1005.35
2019-03-01T03:49:20.558Z,1005.37
2019-03-01T03:50:20.556Z,1005.39
2019-03-01T03:51:20.548Z,1005.40
2019-03-01T03:52:20.546Z,1005.45
2019-03-01T03:53:20.556Z,1005.42
2019-03-01T03:54:21.230Z,1005.46
2019-03-01T03:55:20.521Z,1005.46
2019-03-01T03:56:20.518Z,1005.44
2019-03-01T03:57:20.511Z,1005.44
2019-03-01T03:58:20.506Z,1005.44
2019-03-01T03:59:20.490Z,1005.41
2019-03-01T04:00:20.493Z,1005.45
2019-03-01T04:01:20.477Z,1005.42
2019-03-01T04:02:20.483Z,1005.40
2019-03-01T04:03:20.478Z,1005.39
2019-03-01T04:04:20.461Z,1005.41
2019-03-01T04:05:20.467Z,1005.35
2019-03-01T04:06:20.442Z,1005.39
2019-03-01T04:07:20.431Z,1005.36
2019-03-01T04:08:20.420Z,1005.33
2019-03-01T04:09:21.245Z,1005.32
2019-03-01T04:10:20.415Z,1005.30
2019-03-01T04:11:20.415Z,1005.27
2019-03-01T04:12:20.401Z,1005.24
2019-03-01T04:13:20.426Z,1005.27
2019-03-01T04:14:20.398Z,1005.29
2019-03-01T04:15:20.379Z,1005.29
2019-03-01T04:16:20.371Z,1005.24
2019-03-01T04:17:20.368Z,1005.27
2019-03-01T04:18:20.359Z,1005.29
2019-03-01T04:19:20.351Z,1005.29
2019-03-01T04:20:20.354Z,1005.29
2019-03-01T04:21:20.339Z,1005.30
2019-03-01T04:22:20.333Z,1005.30
2019-03-01T04:23:20.321Z,1005.28
2019-03-01T04:24:20.323Z,1005.30
2019-03-01T04:25:20.323Z,1005.32
2019-03-01T04:26:20.309Z,1005.31
2019-03-01T04:27:20.287Z,1005.33
2019-03-01T04:28:20.297Z,1005.30
2019-03-01T04:29:20.267Z,1005.30
2019-03-01T04:30:20.275Z,1005.31
2019-03-01T04:31:20.271Z,1005.24
2019-03-01T04:32:20.266Z,1005.24
2019-03-01T04:33:20.249Z,1005.26
2019-03-01T04:34:20.235Z,1005.22
2019-03-01T04:35:20.241Z,1005.20
2019-03-01T04:36:20.244Z,1005.22
2019-03-01T04:37:20.222Z,1005.25
2019-03-01T04:38:20.215Z,1005.23
2019-03-01T04:39:20.217Z,1005.23
2019-03-01T04:40:20.189Z,1005.21
2019-03-01T04:41:20.199Z,1005.18
2019-03-01T04:42:20.180Z,1005.17
2019-03-01T04:43:20.179Z,1005.19
2019-03-01T04:44:20.173Z,1005.19
2019-03-01T04:45:20.169Z,1005.21
2019-03-01T04:46:20.153Z,1005.17
2019-03-01T04:47:20.159Z,1005.19
2019-03-01T04:48:20.141Z,1005.15
2019-03-01T04:49:20.139Z,1005.17
2019-03-01T04:50:20.123Z,1005.18
2019-03-01T04:51:20.123Z,1005.16
2019-03-01T04:52:20.124Z,1005.13
2019-03-01T04:53:20.101Z,1005.17
2019-03-01T04:54:20.087Z,1005.20
2019-03-01T04:55:20.092Z,1005.19
2019-03-01T04:56:21.800Z,1005.16
2019-03-01T04:57:20.108Z,1005.18
2019-03-01T04:58:20.078Z,1005.19
2019-03-01T04:59:20.061Z,1005.16
2019-03-01T05:00:20.041Z,1005.17
2019-03-01T05:01:20.038Z,1005.20
2019-03-01T05:02:20.051Z,1005.13
2019-03-01T05:03:20.042Z,1005.13
2019-03-01T05:04:20.033Z,1005.14
2019-03-01T05:05:20.023Z,1005.09
2019-03-01T05:06:20.010Z,1005.09
2019-03-01T05:07:20.002Z,1005.10
2019-03-01T05:08:19.988Z,1005.11
2019-03-01T05:09:19.987Z,1005.07
2019-03-01T05:10:19.982Z,1005.13
2019-03-01T05:11:19.970Z,1005.13
2019-03-01T05:12:19.976Z,1005.13
2019-03-01T05:13:19.948Z,1005.12
2019-03-01T05:14:19.943Z,1005.10
2019-03-01T05:15:19.939Z,1005.10
2019-03-01T05:16:19.935Z,1005.11
2019-03-01T05:17:19.930Z,1005.13
2019-03-01T05:18:19.924Z,1005.12
2019-03-01T05:19:19.917Z,1005.14
2019-03-01T05:20:19.904Z,1005.14
2019-03-01T05:21:19.928Z,1005.15
2019-03-01T05:22:19.894Z,1005.11
2019-03-01T05:23:19.889Z,1005.11
2019-03-01T05:24:19.886Z,1005.10
2019-03-01T05:25:19.870Z,1005.16
2019-03-01T05:26:19.864Z,1005.14
2019-03-01T05:27:19.860Z,1005.17
2019-03-01T05:28:19.853Z,1005.19
2019-03-01T05:29:19.842Z,1005.17
2019-03-01T05:30:19.843Z,1005.14
2019-03-01T05:31:22.765Z,1005.18
2019-03-01T05:32:19.812Z,1005.19
2019-03-01T05:33:22.765Z,1005.16
2019-03-01T05:34:20.768Z,1005.20
2019-03-01T05:35:20.779Z,1005.18
2019-03-01T05:36:19.814Z,1005.21
2019-03-01T05:37:19.779Z,1005.20
2019-03-01T05:38:21.962Z,1005.22
2019-03-01T05:39:19.770Z,1005.25
2019-03-01T05:40:19.755Z,1005.26
2019-03-01T05:41:19.751Z,1005.24
2019-03-01T05:42:19.735Z,1005.24
2019-03-01T05:43:19.738Z,1005.24
2019-03-01T05:44:19.714Z,1005.22
2019-03-01T05:45:19.720Z,1005.23
2019-03-01T05:46:19.707Z,1005.24
2019-03-01T05:47:19.710Z,1005.21
2019-03-01T05:48:19.698Z,1005.22
2019-03-01T05:49:19.720Z,1005.21
2019-03-01T05:50:19.684Z,1005.20
2019-03-01T05:51:19.674Z,1005.23
2019-03-01T05:52:19.664Z,1005.19
2019-03-01T05:53:19.672Z,1005.20
2019-03-01T05:54:19.652Z,1005.20
2019-03-01T05:55:19.642Z,1005.22
2019-03-01T05:56:19.641Z,1005.22
2019-03-01T05:57:19.624Z,1005.23
2019-03-01T05:58:19.625Z,1005.25
2019-03-01T05:59:19.615Z,1005.27
2019-03-01T06:00:19.613Z,1005.29
2019-03-01T06:01:19.598Z,1005.26
2019-03-01T06:02:19.635Z,1005.30
2019-03-01T06:03:19.582Z,1005.35
2019-03-01T06:04:20.283Z,1005.37
2019-03-01T06:05:19.565Z,1005.36
2019-03-01T06:06:19.557Z,1005.35
2019-03-01T06:07:19.560Z,1005.39
2019-03-01T06:08:19.551Z,1005.42
2019-03-01T06:09:19.537Z,1005.40
2019-03-01T06:10:19.552Z,1005.45
2019-03-01T06:11:19.533Z,1005.45
2019-03-01T06:12:19.516Z,1005.47
2019-03-01T06:13:19.512Z,1005.47
2019-03-01T06:14:20.319Z,1005.52
2019-03-01T06:15:19.486Z,1005.48
2019-03-01T06:16:19.485Z,1005.50
2019-03-01T06:17:19.482Z,1005.51
2019-03-01T06:18:19.468Z,1005.50
2019-03-01T06:19:19.467Z,1005.50
2019-03-01T06:20:19.457Z,1005.50
2019-03-01T06:21:19.453Z,1005.54
2019-03-01T06:22:19.459Z,1005.51
2019-03-01T06:23:34.307Z,1005.55
2019-03-01T06:24:19.442Z,1005.52
2019-03-01T06:25:19.414Z,1005.53
2019-03-01T06:26:19.424Z,1005.52
2019-03-01T06:27:19.484Z,1005.54
2019-03-01T06:28:19.393Z,1005.55
2019-03-01T06:29:19.398Z,1005.56
2019-03-01T06:30:19.377Z,1005.60
2019-03-01T06:31:19.397Z,1005.55
2019-03-01T06:32:19.366Z,1005.61
2019-03-01T06:33:19.354Z,1005.59
2019-03-01T06:34:19.351Z,1005.59
2019-03-01T06:35:19.350Z,1005.59
2019-03-01T06:36:19.621Z,1005.61
2019-03-01T06:37:19.331Z,1005.59
2019-03-01T06:38:19.323Z,1005.61
2019-03-01T06:39:19.315Z,1005.63
2019-03-01T06:40:19.300Z,1005.63
2019-03-01T06:41:19.304Z,1005.62
2019-03-01T06:42:19.292Z,1005.61
2019-03-01T06:43:19.278Z,1005.66
2019-03-01T06:44:19.269Z,1005.61
2019-03-01T06:45:19.275Z,1005.65
2019-03-01T06:46:19.260Z,1005.63
2019-03-01T06:47:19.242Z,1005.67
2019-03-01T06:48:19.236Z,1005.64
2019-03-01T06:49:19.253Z,1005.66
2019-03-01T06:50:19.233Z,1005.68
2019-03-01T06:51:28.379Z,1005.69
2019-03-01T06:52:19.261Z,1005.67
2019-03-01T06:53:19.206Z,1005.71
2019-03-01T06:54:19.200Z,1005.68
2019-03-01T06:55:19.190Z,1005.67
2019-03-01T06:56:19.173Z,1005.74
2019-03-01T06:57:19.195Z,1005.72
2019-03-01T06:58:19.169Z,1005.69
2019-03-01T06:59:19.157Z,1005.73
2019-03-01T07:00:19.179Z,1005.73
2019-03-01T07:01:19.138Z,1005.73
2019-03-01T07:02:19.154Z,1005.74
2019-03-01T07:03:19.129Z,1005.76
2019-03-01T07:04:19.124Z,1005.78
2019-03-01T07:05:19.112Z,1005.79
2019-03-01T07:06:19.152Z,1005.80
2019-03-01T07:07:19.975Z,1005.80
2019-03-01T07:08:19.092Z,1005.83
2019-03-01T07:09:19.082Z,1005.86
2019-03-01T07:10:19.083Z,1005.89
2019-03-01T07:11:19.082Z,1005.89
2019-03-01T07:12:19.067Z,1005.89
2019-03-01T07:13:19.067Z,1005.92
2019-03-01T07:14:19.046Z,1005.97
2019-03-01T07:15:19.082Z,1005.94
2019-03-01T07:16:19.049Z,1005.94
2019-03-01T07:17:19.021Z,1005.95
2019-03-01T07:18:19.054Z,1005.96
2019-03-01T07:19:19.026Z,1005.96
2019-03-01T07:20:19.013Z,1005.99
2019-03-01T07:21:18.991Z,1005.97
2019-03-01T07:22:18.990Z,1006.00
2019-03-01T07:23:18.978Z,1005.99
2019-03-01T07:24:19.172Z,1006.03
2019-03-01T07:25:18.963Z,1006.02
2019-03-01T07:26:18.962Z,1006.02
2019-03-01T07:27:18.948Z,1006.04
2019-03-01T07:28:18.954Z,1006.03
2019-03-01T07:29:18.937Z,1006.05
2019-03-01T07:30:18.935Z,1006.06
2019-03-01T07:31:18.934Z,1006.05
2019-03-01T07:32:18.908Z,1006.06
2019-03-01T07:33:18.914Z,1006.03
2019-03-01T07:34:18.902Z,1006.05
2019-03-01T07:35:18.914Z,1006.01
2019-03-01T07:36:18.892Z,1006.06
2019-03-01T07:37:18.898Z,1006.07
2019-03-01T07:38:18.892Z,1006.14
2019-03-01T07:39:18.907Z,1006.13
2019-03-01T07:40:18.869Z,1006.14
2019-03-01T07:41:18.855Z,1006.16
2019-03-01T07:42:18.859Z,1006.17
2019-03-01T07:43:18.876Z,1006.16
2019-03-01T07:44:18.854Z,1006.20
2019-03-01T07:45:19.349Z,1006.20
2019-03-01T07:46:18.825Z,1006.25
2019-03-01T07:47:18.811Z,1006.25
2019-03-01T07:48:18.811Z,1006.25
2019-03-01T07:49:19.340Z,1006.32
2019-03-01T07:50:18.817Z,1006.32
2019-03-01T07:51:18.805Z,1006.30
2019-03-01T07:52:18.769Z,1006.32
2019-03-01T07:53:18.754Z,1006.34
2019-03-01T07:54:18.748Z,1006.34
2019-03-01T07:55:18.750Z,1006.39
2019-03-01T07:56:18.738Z,1006.36
2019-03-01T07:57:18.751Z,1006.42
2019-03-01T07:58:21.721Z,1006.43
2019-03-01T07:59:18.718Z,1006.45
2019-03-01T08:00:18.704Z,1006.42
2019-03-01T08:01:18.711Z,1006.45
2019-03-01T08:02:18.694Z,1006.45
2019-03-01T08:03:18.682Z,1006.44
2019-03-01T08:04:18.683Z,1006.43
2019-03-01T08:05:18.690Z,1006.42
2019-03-01T08:06:18.662Z,1006.47
2019-03-01T08:07:20.531Z,1006.46
2019-03-01T08:08:18.657Z,1006.50
2019-03-01T08:09:18.646Z,1006.50
2019-03-01T08:10:22.393Z,1006.51
2019-03-01T08:11:18.646Z,1006.52
2019-03-01T08:12:18.637Z,1006.52
2019-03-01T08:13:18.611Z,1006.53
2019-03-01T08:14:18.601Z,1006.61
2019-03-01T08:15:18.612Z,1006.57
2019-03-01T08:16:20.169Z,1006.59
2019-03-01T08:17:18.597Z,1006.57
2019-03-01T08:18:18.626Z,1006.58
2019-03-01T08:19:22.541Z,1006.65
2019-03-01T08:20:18.591Z,1006.64
2019-03-01T08:21:18.585Z,1006.64
2019-03-01T08:22:20.863Z,1006.66
2019-03-01T08:23:18.535Z,1006.63
2019-03-01T08:24:18.529Z,1006.62
2019-03-01T08:25:23.392Z,1006.66
2019-03-01T08:26:18.618Z,1006.64
2019-03-01T08:27:18.517Z,1006.66
2019-03-01T08:28:21.794Z,1006.71
2019-03-01T08:29:18.531Z,1006.69
2019-03-01T08:30:18.537Z,1006.69
2019-03-01T08:31:21.114Z,1006.69
2019-03-01T08:32:18.510Z,1006.74
2019-03-01T08:33:18.487Z,1006.72
2019-03-01T08:34:18.676Z,1006.74
2019-03-01T08:35:18.451Z,1006.73
2019-03-01T08:36:18.453Z,1006.74
2019-03-01T08:37:18.575Z,1006.76
2019-03-01T08:38:18.521Z,1006.78
2019-03-01T08:39:18.482Z,1006.80
2019-03-01T08:40:18.690Z,1006.79
2019-03-01T08:41:21.645Z,1006.82
2019-03-01T08:42:18.409Z,1006.85
2019-03-01T08:43:18.393Z,1006.89
2019-03-01T08:44:19.325Z,1006.94
2019-03-01T08:45:18.378Z,1006.92
2019-03-01T08:46:18.388Z,1006.95
2019-03-01T08:47:23.301Z,1006.96
2019-03-01T08:48:18.407Z,1006.96
2019-03-01T08:49:18.351Z,1006.97
2019-03-01T08:50:18.342Z,1006.99
2019-03-01T08:51:18.338Z,1007.01
2019-03-01T08:52:18.323Z,1007.02
2019-03-01T08:53:18.323Z,1007.02
2019-03-01T08:54:18.346Z,1007.04
2019-03-01T08:55:18.305Z,1007.07
2019-03-01T08:56:25.911Z,1007.08
2019-03-01T08:57:18.290Z,1007.05
2019-03-01T08:58:18.283Z,1007.12
2019-03-01T08:59:18.676Z,1007.11
2019-03-01T09:00:18.557Z,1007.10
2019-03-01T09:01:18.538Z,1007.11
2019-03-01T09:02:18.796Z,1007.14
2019-03-01T09:03:22.136Z,1007.14
2019-03-01T09:04:21.365Z,1007.13
2019-03-01T09:05:18.443Z,1007.06
2019-03-01T09:06:18.238Z,1007.11
2019-03-01T09:07:18.483Z,1007.15
2019-03-01T09:08:19.433Z,1007.15
2019-03-01T09:09:20.914Z,1007.19
2019-03-01T09:10:18.213Z,1007.18
2019-03-01T09:11:18.192Z,1007.18
2019-03-01T09:12:18.182Z,1007.20
2019-03-01T09:13:18.170Z,1007.27
2019-03-01T09:14:18.175Z,1007.23
2019-03-01T09:15:18.167Z,1007.23
2019-03-01T09:16:18.156Z,1007.26
2019-03-01T09:17:18.150Z,1007.27
2019-03-01T09:18:18.140Z,1007.28
2019-03-01T09:19:18.141Z,1007.34
2019-03-01T09:20:18.204Z,1007.31
2019-03-01T09:21:18.134Z,1007.32
2019-03-01T09:22:18.145Z,1007.35
2019-03-01T09:23:24.307Z,1007.36
2019-03-01T09:24:18.123Z,1007.38
2019-03-01T09:25:18.097Z,1007.38
2019-03-01T09:26:20.121Z,1007.38
2019-03-01T09:27:18.077Z,1007.42
2019-03-01T09:28:18.068Z,1007.44
2019-03-01T09:29:19.328Z,1007.45
2019-03-01T09:30:18.081Z,1007.43
2019-03-01T09:31:18.088Z,1007.45
2019-03-01T09:32:18.038Z,1007.46
2019-03-01T09:33:21.559Z,1007.48
2019-03-01T09:34:18.057Z,1007.51
2019-03-01T09:35:18.012Z,1007.55
2019-03-01T09:36:21.257Z,1007.57
2019-03-01T09:37:18.010Z,1007.60
2019-03-01T09:38:18.024Z,1007.63
2019-03-01T09:39:19.260Z,1007.64
2019-03-01T09:40:17.980Z,1007.68
2019-03-01T09:41:17.993Z,1007.68
2019-03-01T09:42:17.966Z,1007.69
2019-03-01T09:43:17.967Z,1007.66
2019-03-01T09:44:17.956Z,1007.66
2019-03-01T09:45:19.379Z,1007.66
2019-03-01T09:46:20.938Z,1007.67
2019-03-01T09:47:17.961Z,1007.69
2019-03-01T09:48:17.924Z,1007.69
2019-03-01T09:49:17.947Z,1007.83
2019-03-01T09:50:17.917Z,1007.82
2019-03-01T09:51:17.915Z,1007.79
2019-03-01T09:52:20.435Z,1007.83
2019-03-01T09:53:17.897Z,1007.90
2019-03-01T09:54:18.026Z,1007.86
2019-03-01T09:55:17.952Z,1007.88
2019-03-01T09:56:17.932Z,1007.91
2019-03-01T09:57:17.891Z,1007.96
2019-03-01T09:58:17.863Z,1007.93
2019-03-01T09:59:17.864Z,1007.96
2019-03-01T10:00:20.758Z,1007.98
2019-03-01T10:01:23.130Z,1008.04
2019-03-01T10:02:18.029Z,1008.02
2019-03-01T10:03:17.916Z,1008.02
2019-03-01T10:04:17.830Z,1007.99
2019-03-01T10:05:17.833Z,1008.07
2019-03-01T10:06:17.805Z,1008.12
2019-03-01T10:07:17.813Z,1008.10
2019-03-01T10:08:17.794Z,1008.13
2019-03-01T10:09:17.786Z,1008.15
2019-03-01T10:10:17.780Z,1008.18
2019-03-01T10:11:17.780Z,1008.20
2019-03-01T10:12:17.766Z,1008.24
2019-03-01T10:13:17.768Z,1008.26
2019-03-01T10:14:17.768Z,1008.28
2019-03-01T10:15:17.743Z,1008.22
2019-03-01T10:16:17.763Z,1008.28
2019-03-01T10:17:17.729Z,1008.26
2019-03-01T10:18:17.716Z,1008.30
2019-03-01T10:19:17.720Z,1008.26
2019-03-01T10:20:17.711Z,1008.31
2019-03-01T10:21:17.707Z,1008.36
2019-03-01T10:22:17.713Z,1008.42
2019-03-01T10:23:17.682Z,1008.42
2019-03-01T10:24:17.675Z,1008.42
2019-03-01T10:25:17.687Z,1008.44
2019-03-01T10:26:17.663Z,1008.49
2019-03-01T10:27:17.668Z,1008.52
2019-03-01T10:28:17.651Z,1008.53
2019-03-01T10:29:17.658Z,1008.52
2019-03-01T10:30:17.652Z,1008.54
2019-03-01T10:31:17.651Z,1008.59
2019-03-01T10:32:17.625Z,1008.58
2019-03-01T10:33:17.611Z,1008.60
2019-03-01T10:34:17.643Z,1008.61
2019-03-01T10:35:17.596Z,1008.64
2019-03-01T10:36:17.622Z,1008.71
2019-03-01T10:37:17.605Z,1008.67
2019-03-01T10:38:20.472Z,1008.65
2019-03-01T10:39:17.572Z,1008.63
2019-03-01T10:40:17.560Z,1008.65
2019-03-01T10:41:17.552Z,1008.64
2019-03-01T10:42:17.565Z,1008.65
2019-03-01T10:43:17.546Z,1008.66
2019-03-01T10:44:17.548Z,1008.68
2019-03-01T10:45:17.523Z,1008.72
2019-03-01T10:46:17.518Z,1008.78
2019-03-01T10:47:17.510Z,1008.78
2019-03-01T10:48:17.504Z,1008.78
2019-03-01T10:49:17.490Z,1008.81
2019-03-01T10:50:17.510Z,1008.87
2019-03-01T10:51:17.483Z,1008.87
2019-03-01T10:52:17.495Z,1008.88
2019-03-01T10:53:17.493Z,1008.90
2019-03-01T10:54:17.453Z,1008.91
2019-03-01T10:55:17.443Z,1008.91
2019-03-01T10:56:17.437Z,1008.87
2019-03-01T10:57:17.463Z,1008.90
2019-03-01T10:58:17.453Z,1008.89
2019-03-01T10:59:17.418Z,1008.89
2019-03-01T11:00:17.407Z,1008.92
2019-03-01T11:01:17.399Z,1008.97
2019-03-01T11:02:17.388Z,1008.90
2019-03-01T11:03:17.391Z,1008.93
2019-03-01T11:04:17.393Z,1008.95
2019-03-01T11:05:17.373Z,1008.98
2019-03-01T11:06:17.362Z,1008.99
2019-03-01T11:07:17.356Z,1009.05
2019-03-01T11:08:17.345Z,1009.01
2019-03-01T11:09:17.343Z,1009.01
2019-03-01T11:10:17.376Z,1009.05
2019-03-01T11:11:17.407Z,1009.06
2019-03-01T11:12:17.325Z,1009.00
2019-03-01T11:13:17.315Z,1009.03
2019-03-01T11:14:17.318Z,1009.01
2019-03-01T11:15:17.306Z,1009.07
2019-03-01T11:16:17.297Z,1009.04
2019-03-01T11:17:17.281Z,1009.10
2019-03-01T11:18:17.278Z,1009.08
2019-03-01T11:19:17.265Z,1009.10
2019-03-01T11:20:17.262Z,1009.06
2019-03-01T11:21:17.256Z,1009.09
2019-03-01T11:22:17.237Z,1009.12
2019-03-01T11:23:17.236Z,1009.11
2019-03-01T11:24:17.247Z,1009.14
2019-03-01T11:25:17.223Z,1009.13
2019-03-01T11:26:17.221Z,1009.17
2019-03-01T11:27:17.207Z,1009.14
2019-03-01T11:28:17.192Z,1009.23
2019-03-01T11:29:17.203Z,1009.15
2019-03-01T11:30:17.207Z,1009.14
2019-03-01T11:31:17.176Z,1009.16
2019-03-01T11:32:17.363Z,1009.12
2019-03-01T11:33:17.174Z,1009.11
2019-03-01T11:34:17.155Z,1009.18
2019-03-01T11:35:17.146Z,1009.15
2019-03-01T11:36:17.159Z,1009.13
2019-03-01T11:37:17.142Z,1009.15
2019-03-01T11:38:17.189Z,1009.20
2019-03-01T11:39:17.132Z,1009.17
2019-03-01T11:40:17.102Z,1009.19
2019-03-01T11:41:17.098Z,1009.18
2019-03-01T11:42:17.104Z,1009.18
2019-03-01T11:43:17.088Z,1009.20
2019-03-01T11:44:17.097Z,1009.21
2019-03-01T11:45:17.068Z,1009.19
2019-03-01T11:46:17.100Z,1009.21
2019-03-01T11:47:17.061Z,1009.23
2019-03-01T11:48:17.073Z,1009.23
2019-03-01T11:49:17.035Z,1009.24
2019-03-01T11:50:17.057Z,1009.24
2019-03-01T11:51:17.040Z,1009.27
2019-03-01T11:52:17.040Z,1009.30
2019-03-01T11:53:17.007Z,1009.29
2019-03-01T11:54:17.024Z,1009.30
2019-03-01T11:55:17.022Z,1009.32
2019-03-01T11:56:16.979Z,1009.34
2019-03-01T11:57:16.982Z,1009.32
2019-03-01T11:58:17.030Z,1009.38
2019-03-01T11:59:18.932Z,1009.37
2019-03-01T12:00:16.987Z,1009.38
2019-03-01T12:01:17.633Z,1009.40
2019-03-01T12:02:17.026Z,1009.40
2019-03-01T12:03:16.926Z,1009.42
2019-03-01T12:04:16.922Z,1009.41
2019-03-01T12:05:16.921Z,1009.43